createdAt,value
2023-05-18T00:00:23.632Z,94464.00
2023-05-18T00:01:20.723Z,94354.97
2023-05-18T00:02:17.765Z,94368.28
2023-05-18T00:03:15.070Z,94321.84
2023-05-18T00:04:11.924Z,94479.31
2023-05-18T00:05:10.476Z,94447.94
2023-05-18T00:06:07.656Z,94493.31
2023-05-18T00:07:05.063Z,94509.06
2023-05-18T00:08:21.082Z,94454.78
2023-05-18T00:09:18.238Z,94467.59
2023-05-18T00:10:15.103Z,94451.41
2023-05-18T00:11:11.983Z,94349.19
2023-05-18T00:12:11.964Z,94484.25
2023-05-18T00:13:09.074Z,94362.88
2023-05-18T00:14:06.085Z,94213.84
2023-05-18T00:15:03.090Z,94447.69
2023-05-18T00:16:00.892Z,94460.25
2023-05-18T00:16:58.331Z,94351.63
2023-05-18T00:17:55.154Z,94421.25
2023-05-18T00:18:54.684Z,94487.44
2023-05-18T00:19:51.913Z,94483.56
2023-05-18T00:20:48.891Z,94427.22
2023-05-18T00:21:47.903Z,94486.50
2023-05-18T00:22:44.702Z,94375.00
2023-05-18T00:23:42.341Z,94402.38
2023-05-18T00:24:39.114Z,94460.22
2023-05-18T00:25:36.337Z,94486.56
2023-05-18T00:26:33.074Z,94353.63
2023-05-18T00:27:29.915Z,94473.53
2023-05-18T00:28:26.866Z,94477.13
2023-05-18T00:29:23.731Z,94446.59
2023-05-18T00:30:20.762Z,94357.09
2023-05-18T00:31:17.692Z,94489.28
2023-05-18T00:32:14.541Z,94347.44
2023-05-18T00:33:11.391Z,94319.41
2023-05-18T00:34:15.635Z,94503.88
2023-05-18T00:35:12.494Z,94389.00
2023-05-18T00:36:09.296Z,94471.34
2023-05-18T00:37:06.037Z,94489.56
2023-05-18T00:38:03.172Z,94342.09
2023-05-18T00:39:00.272Z,94258.97
2023-05-18T00:39:57.102Z,94489.63
2023-05-18T00:40:54.145Z,94491.34
2023-05-18T00:41:50.989Z,94414.78
2023-05-18T00:42:47.792Z,94351.03
2023-05-18T00:43:44.607Z,94121.13
2023-05-18T00:44:41.403Z,94476.56
2023-05-18T00:45:38.495Z,94501.56
2023-05-18T00:46:36.599Z,94336.69
2023-05-18T00:47:33.552Z,94479.34
2023-05-18T00:48:30.479Z,94386.56
2023-05-18T00:49:27.820Z,94458.84
2023-05-18T00:50:25.179Z,94487.78
2023-05-18T00:51:24.062Z,94426.41
2023-05-18T00:52:21.903Z,94475.84
2023-05-18T00:53:18.959Z,94459.53
2023-05-18T00:54:16.984Z,94414.78
2023-05-18T00:55:14.493Z,94257.69
2023-05-18T00:56:12.272Z,94498.56
2023-05-18T00:57:09.291Z,94481.38
2023-05-18T00:58:06.268Z,94356.16
2023-05-18T00:59:03.573Z,94360.66
2023-05-18T01:00:01.351Z,94375.41
2023-05-18T01:00:58.426Z,94467.91
2023-05-18T01:01:56.463Z,94486.78
2023-05-18T01:02:53.449Z,94487.78
2023-05-18T01:03:56.450Z,94446.41
2023-05-18T01:04:54.122Z,94372.34
2023-05-18T01:05:55.794Z,94486.13
2023-05-18T01:06:56.798Z,94478.81
2023-05-18T01:07:56.604Z,94433.72
2023-05-18T01:08:54.770Z,94337.16
2023-05-18T01:09:51.644Z,94475.41
2023-05-18T01:11:24.974Z,94483.50
2023-05-18T01:12:32.854Z,94449.72
2023-05-18T01:13:49.051Z,94447.25
2023-05-18T01:15:08.887Z,94454.69
2023-05-18T01:16:13.173Z,94483.59
2023-05-18T01:17:35.070Z,94477.09
2023-05-18T01:18:46.309Z,94305.28
2023-05-18T01:19:49.848Z,94499.28
2023-05-18T01:20:50.123Z,94452.63
2023-05-18T01:22:12.769Z,94488.94
2023-05-18T01:23:30.076Z,94496.53
2023-05-18T01:24:44.399Z,94474.59
2023-05-18T01:25:41.201Z,94503.84
2023-05-18T01:26:45.394Z,94479.84
2023-05-18T01:27:46.730Z,94482.75
2023-05-18T01:28:46.950Z,94481.00
2023-05-18T01:29:46.271Z,94334.47
2023-05-18T01:30:44.940Z,94375.56
2023-05-18T01:31:42.233Z,94475.13
2023-05-18T01:32:42.738Z,94333.66
2023-05-18T01:33:39.691Z,94478.44
2023-05-18T01:34:36.493Z,94427.38
2023-05-18T01:35:33.325Z,94453.25
2023-05-18T01:36:31.669Z,94366.25
2023-05-18T01:37:28.453Z,94434.72
2023-05-18T01:38:27.553Z,94342.59
2023-05-18T01:39:24.460Z,94490.63
2023-05-18T01:40:21.528Z,94493.94
2023-05-18T01:41:21.531Z,94365.38
2023-05-18T01:42:25.481Z,94481.16
2023-05-18T01:43:32.128Z,94242.94
2023-05-18T01:44:42.112Z,94393.94
2023-05-18T01:45:44.492Z,94375.47
2023-05-18T01:46:50.171Z,94503.72
2023-05-18T01:47:49.244Z,94246.06
2023-05-18T01:48:54.180Z,94426.31
2023-05-18T01:49:57.055Z,94496.88
2023-05-18T01:50:58.807Z,94513.47
2023-05-18T01:52:01.715Z,94396.06
2023-05-18T01:53:13.152Z,94464.16
2023-05-18T01:54:12.813Z,94480.03
2023-05-18T01:55:11.792Z,94374.81
2023-05-18T01:56:10.876Z,94481.63
2023-05-18T01:57:09.763Z,94492.72
2023-05-18T01:58:10.149Z,94300.81
2023-05-18T01:59:07.070Z,94341.78
2023-05-18T02:00:07.981Z,94472.84
2023-05-18T02:01:05.967Z,94379.91
2023-05-18T02:02:04.527Z,94494.63
2023-05-18T02:03:01.439Z,94367.28
2023-05-18T02:03:58.390Z,94387.41
2023-05-18T02:04:55.568Z,94461.78
2023-05-18T02:05:52.502Z,94303.13
2023-05-18T02:06:49.257Z,94493.50
2023-05-18T02:07:47.614Z,94380.38
2023-05-18T02:08:45.023Z,94274.81
2023-05-18T02:09:42.082Z,94445.47
2023-05-18T02:10:38.865Z,94485.81
2023-05-18T02:11:35.689Z,94494.78
2023-05-18T02:12:32.801Z,94369.22
2023-05-18T02:13:29.613Z,94501.53
2023-05-18T02:14:26.697Z,94501.59
2023-05-18T02:15:23.514Z,94501.69
2023-05-18T02:16:20.328Z,94379.09
2023-05-18T02:17:17.149Z,94368.88
2023-05-18T02:18:14.081Z,94518.66
2023-05-18T02:19:12.035Z,94420.81
2023-05-18T02:20:09.424Z,94507.09
2023-05-18T02:21:06.221Z,94379.59
2023-05-18T02:22:03.047Z,94439.25
2023-05-18T02:23:00.235Z,94252.94
2023-05-18T02:23:57.147Z,94489.69
2023-05-18T02:24:54.041Z,94470.81
2023-05-18T02:25:50.978Z,94506.00
2023-05-18T02:26:47.884Z,94413.19
2023-05-18T02:27:44.807Z,94481.94
2023-05-18T02:28:41.712Z,94461.91
2023-05-18T02:29:38.587Z,94527.41
2023-05-18T02:30:35.621Z,94444.28
2023-05-18T02:31:32.726Z,94468.09
2023-05-18T02:32:29.600Z,94362.28
2023-05-18T02:33:26.669Z,94468.81
2023-05-18T02:34:24.872Z,94299.34
2023-05-18T02:35:21.810Z,94474.53
2023-05-18T02:36:18.702Z,94494.72
2023-05-18T02:37:15.857Z,94469.72
2023-05-18T02:38:12.645Z,94370.53
2023-05-18T02:39:10.524Z,94492.53
2023-05-18T02:40:10.487Z,94497.13
2023-05-18T02:41:07.314Z,94363.09
2023-05-18T02:42:04.246Z,94471.88
2023-05-18T02:43:01.452Z,94487.13
2023-05-18T02:43:58.268Z,94427.63
2023-05-18T02:44:56.323Z,94472.91
2023-05-18T02:45:53.210Z,94501.75
2023-05-18T02:46:49.965Z,94501.38
2023-05-18T02:47:47.076Z,94318.16
2023-05-18T02:48:45.771Z,94500.47
2023-05-18T02:49:42.772Z,94375.34
2023-05-18T02:50:39.692Z,94421.31
2023-05-18T02:51:36.828Z,94516.72
2023-05-18T02:52:34.090Z,94379.53
2023-05-18T02:53:31.139Z,94385.00
2023-05-18T02:54:28.002Z,94381.59
2023-05-18T02:55:24.864Z,94515.47
2023-05-18T02:56:21.713Z,94354.66
2023-05-18T02:57:18.502Z,94489.50
2023-05-18T02:58:16.289Z,94463.13
2023-05-18T02:59:13.608Z,94282.38
2023-05-18T03:00:11.859Z,94519.19
2023-05-18T03:01:08.701Z,94525.09
2023-05-18T03:02:05.987Z,94521.50
2023-05-18T03:03:03.009Z,94491.53
2023-05-18T03:03:59.926Z,94510.88
2023-05-18T03:04:57.552Z,94440.72
2023-05-18T03:05:54.476Z,94524.47
2023-05-18T03:06:53.031Z,94499.00
2023-05-18T03:07:54.458Z,94518.22
2023-05-18T03:08:51.531Z,94372.47
2023-05-18T03:09:48.302Z,94526.88
2023-05-18T03:10:45.622Z,94421.16
2023-05-18T03:11:42.480Z,94545.84
2023-05-18T03:12:39.199Z,94518.69
2023-05-18T03:13:36.017Z,94530.44
2023-05-18T03:14:32.811Z,94542.31
2023-05-18T03:15:32.780Z,94499.59
2023-05-18T03:16:29.717Z,94547.31
2023-05-18T03:17:26.514Z,94414.38
2023-05-18T03:18:25.219Z,94411.34
2023-05-18T03:19:22.123Z,94536.66
2023-05-18T03:20:19.910Z,94500.28
2023-05-18T03:21:16.719Z,94559.72
2023-05-18T03:22:13.598Z,94420.63
2023-05-18T03:23:10.622Z,94447.84
2023-05-18T03:24:07.598Z,94557.38
2023-05-18T03:25:06.044Z,94555.91
2023-05-18T03:26:04.069Z,94564.66
2023-05-18T03:27:01.032Z,94392.84
2023-05-18T03:27:58.341Z,94327.00
2023-05-18T03:28:55.111Z,94471.28
2023-05-18T03:29:56.537Z,94454.63
2023-05-18T03:30:53.553Z,94495.91
2023-05-18T03:31:50.567Z,94528.78
2023-05-18T03:32:48.075Z,94569.09
2023-05-18T03:33:44.953Z,94565.09
2023-05-18T03:34:41.745Z,94407.13
2023-05-18T03:35:40.623Z,94572.50
2023-05-18T03:36:38.475Z,94556.38
2023-05-18T03:37:35.344Z,94434.03
2023-05-18T03:38:32.191Z,94530.00
2023-05-18T03:39:28.935Z,94436.28
2023-05-18T03:40:25.745Z,94441.88
2023-05-18T03:41:22.626Z,94532.94
2023-05-18T03:42:19.531Z,94571.59
2023-05-18T03:43:16.384Z,94561.31
2023-05-18T03:44:13.169Z,94546.88
2023-05-18T03:45:11.568Z,94564.13
2023-05-18T03:46:08.538Z,94332.41
2023-05-18T03:47:05.741Z,94564.94
2023-05-18T03:48:02.582Z,94427.91
2023-05-18T03:48:59.487Z,94515.31
2023-05-18T03:49:56.294Z,94517.91
2023-05-18T03:50:53.156Z,94531.28
2023-05-18T03:51:50.046Z,94541.94
2023-05-18T03:52:46.869Z,94566.22
2023-05-18T03:53:43.656Z,94566.50
2023-05-18T03:54:42.798Z,94509.03
2023-05-18T03:55:39.876Z,94439.75
2023-05-18T03:56:36.678Z,94559.91
2023-05-18T03:57:33.732Z,94330.50
2023-05-18T03:58:30.580Z,94564.47
2023-05-18T03:59:27.441Z,94532.94
2023-05-18T04:00:24.755Z,94465.34
2023-05-18T04:01:23.852Z,94545.13
2023-05-18T04:02:21.261Z,94466.66
2023-05-18T04:03:18.346Z,94542.69
2023-05-18T04:04:18.485Z,94554.97
2023-05-18T04:05:15.530Z,94580.28
2023-05-18T04:06:12.319Z,94184.00
2023-05-18T04:07:09.283Z,94431.94
2023-05-18T04:08:07.748Z,94586.28
2023-05-18T04:09:04.559Z,94533.34
2023-05-18T04:10:01.385Z,94516.22
2023-05-18T04:10:58.178Z,94621.75
2023-05-18T04:11:55.476Z,94584.41
2023-05-18T04:12:52.314Z,94588.66
2023-05-18T04:13:50.868Z,94540.75
2023-05-18T04:14:49.611Z,94584.91
2023-05-18T04:15:47.734Z,94586.16
2023-05-18T04:16:44.704Z,94445.72
2023-05-18T04:17:45.972Z,94566.72
2023-05-18T04:18:44.627Z,94483.03
2023-05-18T04:19:42.034Z,94451.47
2023-05-18T04:20:39.077Z,94487.59
2023-05-18T04:21:36.385Z,94599.03
2023-05-18T04:22:33.398Z,94581.53
2023-05-18T04:23:30.208Z,94603.44
2023-05-18T04:24:27.276Z,94476.84
2023-05-18T04:25:28.397Z,94554.13
2023-05-18T04:26:25.501Z,94619.09
2023-05-18T04:27:22.781Z,94547.97
2023-05-18T04:28:19.659Z,94508.28
2023-05-18T04:29:17.509Z,94600.38
2023-05-18T04:30:14.446Z,94512.44
2023-05-18T04:31:14.528Z,94578.75
2023-05-18T04:32:11.693Z,94565.22
2023-05-18T04:33:08.708Z,94569.50
2023-05-18T04:34:07.036Z,94589.56
2023-05-18T04:35:07.207Z,94461.44
2023-05-18T04:36:05.079Z,94600.50
2023-05-18T04:37:03.238Z,94602.59
2023-05-18T04:38:00.191Z,94483.00
2023-05-18T04:39:00.998Z,94591.84
2023-05-18T04:39:58.867Z,94577.88
2023-05-18T04:40:57.097Z,94599.84
2023-05-18T04:41:58.541Z,94553.09
2023-05-18T04:42:55.405Z,94562.31
2023-05-18T04:43:52.865Z,94465.56
2023-05-18T04:44:52.284Z,94608.03
2023-05-18T04:45:50.670Z,94604.38
2023-05-18T04:46:47.636Z,94451.31
2023-05-18T04:47:53.425Z,94539.06
2023-05-18T04:48:50.727Z,94433.84
2023-05-18T04:49:49.276Z,94568.56
2023-05-18T04:50:46.262Z,94610.44
2023-05-18T04:51:43.397Z,94496.16
2023-05-18T04:52:41.734Z,94605.75
2023-05-18T04:53:39.095Z,94485.03
2023-05-18T04:54:36.008Z,94588.63
2023-05-18T04:55:33.390Z,94302.03
2023-05-18T04:56:30.424Z,94350.13
2023-05-18T04:57:27.392Z,94458.47
2023-05-18T04:58:24.306Z,94611.06
2023-05-18T04:59:26.131Z,94611.22
2023-05-18T05:00:24.958Z,94595.69
2023-05-18T05:01:21.793Z,94501.28
2023-05-18T05:02:18.980Z,94385.38
2023-05-18T05:03:16.157Z,94487.00
2023-05-18T05:04:13.711Z,94624.09
2023-05-18T05:05:10.469Z,94592.06
2023-05-18T05:06:07.980Z,94572.25
2023-05-18T05:07:04.978Z,94625.72
2023-05-18T05:08:04.696Z,94610.31
2023-05-18T05:09:01.536Z,94622.38
2023-05-18T05:09:58.347Z,94619.97
2023-05-18T05:10:55.120Z,94613.72
2023-05-18T05:11:51.949Z,94314.28
2023-05-18T05:12:52.165Z,94569.84
2023-05-18T05:13:48.991Z,94595.72
2023-05-18T05:14:45.879Z,94624.84
2023-05-18T05:15:42.675Z,94635.94
2023-05-18T05:16:40.208Z,94485.69
2023-05-18T05:17:38.460Z,94545.69
2023-05-18T05:18:35.335Z,94499.84
2023-05-18T05:19:32.346Z,94477.81
2023-05-18T05:20:29.315Z,94531.66
2023-05-18T05:21:26.202Z,94575.09
2023-05-18T05:22:23.153Z,94640.13
2023-05-18T05:23:19.980Z,94559.53
2023-05-18T05:24:16.839Z,94587.22
2023-05-18T05:25:13.794Z,94634.63
2023-05-18T05:26:10.787Z,94598.41
2023-05-18T05:27:07.963Z,94466.31
2023-05-18T05:28:04.880Z,94526.53
2023-05-18T05:29:01.662Z,94522.44
2023-05-18T05:29:58.483Z,94510.81
2023-05-18T05:30:55.262Z,94638.34
2023-05-18T05:31:52.116Z,94647.88
2023-05-18T05:32:49.143Z,94634.56
2023-05-18T05:33:46.110Z,94612.59
2023-05-18T05:34:47.988Z,94635.81
2023-05-18T05:35:45.143Z,94607.00
2023-05-18T05:36:41.978Z,94492.22
2023-05-18T05:37:38.809Z,94654.28
2023-05-18T05:38:35.640Z,94541.31
2023-05-18T05:39:32.408Z,94627.63
2023-05-18T05:40:29.153Z,94483.72
2023-05-18T05:41:26.017Z,94416.94
2023-05-18T05:42:22.809Z,94653.19
2023-05-18T05:43:19.645Z,94546.28
2023-05-18T05:44:17.059Z,94650.09
2023-05-18T05:45:13.892Z,94656.50
2023-05-18T05:46:10.967Z,94524.97
2023-05-18T05:47:08.741Z,94656.22
2023-05-18T05:48:06.047Z,94661.13
2023-05-18T05:49:02.807Z,94629.69
2023-05-18T05:49:59.593Z,94544.16
2023-05-18T05:50:56.769Z,94550.94
2023-05-18T05:51:53.572Z,94622.44
2023-05-18T05:52:50.720Z,94660.91
2023-05-18T05:53:49.399Z,94499.06
2023-05-18T05:54:46.497Z,94562.78
2023-05-18T05:55:43.789Z,94654.13
2023-05-18T05:56:40.676Z,94655.53
2023-05-18T05:57:37.447Z,94667.34
2023-05-18T05:58:34.188Z,94513.28
2023-05-18T05:59:31.176Z,94627.78
2023-05-18T06:00:28.934Z,94652.03
2023-05-18T06:01:25.840Z,94676.59
2023-05-18T06:02:23.022Z,94666.84
2023-05-18T06:03:19.953Z,94571.38
2023-05-18T06:04:16.964Z,94663.50
2023-05-18T06:05:13.781Z,94662.47
2023-05-18T06:06:11.370Z,94661.16
2023-05-18T06:07:08.182Z,94667.78
2023-05-18T06:08:05.275Z,94632.22
2023-05-18T06:09:02.053Z,94637.63
2023-05-18T06:09:59.005Z,94658.22
2023-05-18T06:10:55.973Z,94661.78
2023-05-18T06:11:53.061Z,94665.50
2023-05-18T06:12:49.971Z,94559.84
2023-05-18T06:13:46.867Z,94669.22
2023-05-18T06:14:43.645Z,94426.72
2023-05-18T06:15:40.428Z,94627.16
2023-05-18T06:16:37.762Z,94569.91
2023-05-18T06:17:35.261Z,94559.09
2023-05-18T06:18:32.274Z,94548.38
2023-05-18T06:19:29.155Z,94579.38
2023-05-18T06:20:27.391Z,94539.78
2023-05-18T06:21:24.393Z,94672.88
2023-05-18T06:22:21.199Z,94547.25
2023-05-18T06:23:22.862Z,94561.28
2023-05-18T06:24:19.734Z,94683.59
2023-05-18T06:25:17.691Z,94557.16
2023-05-18T06:26:14.669Z,94645.59
2023-05-18T06:27:11.626Z,94542.75
2023-05-18T06:28:08.392Z,94650.56
2023-05-18T06:29:05.737Z,94379.97
2023-05-18T06:30:02.553Z,94449.88
2023-05-18T06:30:59.555Z,94659.66
2023-05-18T06:31:57.561Z,94597.28
2023-05-18T06:32:54.480Z,94455.25
2023-05-18T06:33:51.361Z,94654.66
2023-05-18T06:34:50.668Z,94680.59
2023-05-18T06:35:47.674Z,94549.34
2023-05-18T06:36:44.522Z,94686.59
2023-05-18T06:37:41.375Z,94687.97
2023-05-18T06:38:38.259Z,94575.31
2023-05-18T06:39:35.030Z,94683.38
2023-05-18T06:40:31.958Z,94663.84
2023-05-18T06:41:28.787Z,94597.59
2023-05-18T06:42:25.697Z,94692.59
2023-05-18T06:43:22.541Z,94660.72
2023-05-18T06:44:19.357Z,94688.66
2023-05-18T06:45:16.246Z,94320.06
2023-05-18T06:46:23.261Z,94648.56
2023-05-18T06:47:20.184Z,94687.88
2023-05-18T06:48:16.997Z,94656.84
2023-05-18T06:49:13.813Z,94566.78
2023-05-18T06:50:10.707Z,94684.09
2023-05-18T06:51:07.505Z,94539.56
2023-05-18T06:52:04.718Z,94693.41
2023-05-18T06:53:04.515Z,94673.50
2023-05-18T06:54:01.356Z,94596.41
2023-05-18T06:54:58.135Z,94467.78
2023-05-18T06:55:54.917Z,94630.44
2023-05-18T06:56:52.433Z,94716.47
2023-05-18T06:57:49.209Z,94627.75
2023-05-18T06:58:46.040Z,94662.97
2023-05-18T06:59:42.808Z,94639.72
2023-05-18T07:00:39.902Z,94619.63
2023-05-18T07:01:36.958Z,94597.91
2023-05-18T07:02:34.859Z,94570.69
2023-05-18T07:03:32.675Z,94696.06
2023-05-18T07:04:29.543Z,94673.88
2023-05-18T07:05:27.081Z,94662.88
2023-05-18T07:06:23.974Z,94694.88
2023-05-18T07:07:21.580Z,94561.63
2023-05-18T07:08:18.358Z,94664.78
2023-05-18T07:09:15.289Z,94674.94
2023-05-18T07:10:12.231Z,94686.69
2023-05-18T07:11:09.888Z,94558.78
2023-05-18T07:12:07.207Z,94691.97
2023-05-18T07:13:04.031Z,94646.66
2023-05-18T07:14:00.888Z,94674.09
2023-05-18T07:14:57.611Z,94662.72
2023-05-18T07:15:54.500Z,94661.16
2023-05-18T07:16:51.971Z,94522.06
2023-05-18T07:17:49.159Z,94686.69
2023-05-18T07:18:47.663Z,94655.81
2023-05-18T07:19:44.600Z,94634.56
2023-05-18T07:20:41.456Z,94656.25
2023-05-18T07:21:38.247Z,94535.16
2023-05-18T07:22:35.593Z,94505.97
2023-05-18T07:23:32.708Z,94668.81
2023-05-18T07:24:29.484Z,94683.47
2023-05-18T07:25:26.355Z,94567.28
2023-05-18T07:26:23.610Z,94582.94
2023-05-18T07:27:20.823Z,94641.97
2023-05-18T07:28:17.711Z,94547.06
2023-05-18T07:29:14.530Z,94527.75
2023-05-18T07:30:11.592Z,94425.69
2023-05-18T07:31:08.410Z,94668.41
2023-05-18T07:32:05.196Z,94522.59
2023-05-18T07:33:02.145Z,94651.44
2023-05-18T07:33:59.337Z,94535.94
2023-05-18T07:34:56.182Z,94522.44
2023-05-18T07:35:53.097Z,94667.97
2023-05-18T07:36:49.900Z,94659.16
2023-05-18T07:37:46.785Z,94663.06
2023-05-18T07:38:44.181Z,94661.13
2023-05-18T07:39:41.057Z,94652.41
2023-05-18T07:40:37.905Z,94548.56
2023-05-18T07:41:34.826Z,94526.41
2023-05-18T07:42:33.997Z,94623.81
2023-05-18T07:43:30.975Z,94573.19
2023-05-18T07:44:27.963Z,94514.66
2023-05-18T07:45:24.854Z,94532.78
2023-05-18T07:46:21.751Z,94641.97
2023-05-18T07:47:19.274Z,94643.66
2023-05-18T07:48:16.343Z,94618.63
2023-05-18T07:49:13.209Z,94624.09
2023-05-18T07:50:10.417Z,94646.34
2023-05-18T07:51:07.367Z,94653.47
2023-05-18T07:52:04.360Z,94521.44
2023-05-18T07:53:01.172Z,94655.25
2023-05-18T07:53:58.206Z,94509.97
2023-05-18T07:54:58.260Z,94611.75
2023-05-18T07:55:55.037Z,94668.84
2023-05-18T07:56:51.824Z,94642.72
2023-05-18T07:57:48.609Z,94659.72
2023-05-18T07:58:45.554Z,94675.97
2023-05-18T07:59:42.467Z,94525.41
2023-05-18T08:00:39.217Z,94625.88
2023-05-18T08:01:37.801Z,94538.19
2023-05-18T08:02:34.841Z,94535.31
2023-05-18T08:03:32.131Z,94677.41
2023-05-18T08:04:29.052Z,94638.53
2023-05-18T08:05:25.832Z,94598.50
2023-05-18T08:06:23.862Z,94534.88
2023-05-18T08:07:21.581Z,94676.94
2023-05-18T08:08:18.828Z,94638.63
2023-05-18T08:09:15.731Z,94683.84
2023-05-18T08:10:12.599Z,94549.03
2023-05-18T08:11:12.065Z,94677.78
2023-05-18T08:12:09.266Z,94683.84
2023-05-18T08:13:06.066Z,94662.09
2023-05-18T08:14:02.894Z,94549.56
2023-05-18T08:14:59.775Z,94679.66
2023-05-18T08:16:10.480Z,94633.63
2023-05-18T08:17:08.650Z,94654.13
2023-05-18T08:18:05.655Z,94644.47
2023-05-18T08:19:03.214Z,94646.63
2023-05-18T08:20:00.205Z,94552.38
2023-05-18T08:20:57.155Z,94555.78
2023-05-18T08:21:53.969Z,94526.59
2023-05-18T08:22:50.820Z,94650.66
2023-05-18T08:23:47.850Z,94686.06
2023-05-18T08:24:45.136Z,94564.84
2023-05-18T08:25:42.036Z,94675.69
2023-05-18T08:26:38.999Z,94694.16
2023-05-18T08:27:35.940Z,94459.94
2023-05-18T08:28:32.790Z,94676.56
2023-05-18T08:29:29.647Z,94610.53
2023-05-18T08:30:26.904Z,94701.09
2023-05-18T08:31:23.826Z,94531.97
2023-05-18T08:32:20.756Z,94562.56
2023-05-18T08:33:17.716Z,94653.25
2023-05-18T08:34:14.810Z,94627.53
2023-05-18T08:35:11.748Z,94720.06
2023-05-18T08:36:09.500Z,94619.09
2023-05-18T08:37:06.362Z,94701.25
2023-05-18T08:38:05.533Z,94593.13
2023-05-18T08:39:03.084Z,94590.56
2023-05-18T08:40:00.006Z,94531.91
2023-05-18T08:41:13.578Z,94664.06
2023-05-18T08:42:27.574Z,94688.56
2023-05-18T08:43:33.536Z,94589.94
2023-05-18T08:44:39.133Z,94691.75
2023-05-18T08:46:05.214Z,94700.59
2023-05-18T08:47:05.729Z,94713.88
2023-05-18T08:48:03.933Z,94698.91
2023-05-18T08:49:02.795Z,94688.00
2023-05-18T08:50:03.010Z,94580.75
2023-05-18T08:51:02.201Z,94526.16
2023-05-18T08:52:05.008Z,94653.53
2023-05-18T08:53:06.232Z,94686.88
2023-05-18T08:54:06.212Z,94699.97
2023-05-18T08:55:09.450Z,94710.06
2023-05-18T08:56:11.335Z,94682.72
2023-05-18T08:57:10.180Z,94707.97
2023-05-18T08:58:09.454Z,94590.00
2023-05-18T08:59:09.071Z,94718.19
2023-05-18T09:00:08.000Z,94720.38
2023-05-18T09:01:05.135Z,94598.97
2023-05-18T09:02:02.555Z,94704.91
2023-05-18T09:03:00.026Z,94695.47
2023-05-18T09:03:58.407Z,94699.44
2023-05-18T09:04:56.801Z,94652.00
2023-05-18T09:05:57.033Z,94653.66
2023-05-18T09:06:55.307Z,94718.19
2023-05-18T09:07:52.434Z,94602.63
2023-05-18T09:08:51.465Z,94718.50
2023-05-18T09:09:49.476Z,94653.66
2023-05-18T09:10:48.565Z,94692.13
2023-05-18T09:11:47.233Z,94622.34
2023-05-18T09:12:48.490Z,94708.41
2023-05-18T09:13:46.000Z,94636.28
2023-05-18T09:14:43.667Z,94690.81
2023-05-18T09:15:40.892Z,94725.13
2023-05-18T09:16:37.970Z,94722.22
2023-05-18T09:17:34.979Z,94658.09
2023-05-18T09:18:32.025Z,94601.53
2023-05-18T09:19:28.973Z,94724.88
2023-05-18T09:20:26.504Z,94664.00
2023-05-18T09:21:23.383Z,94480.59
2023-05-18T09:22:20.220Z,94708.56
2023-05-18T09:23:19.991Z,94569.38
2023-05-18T09:24:19.379Z,94618.13
2023-05-18T09:25:17.853Z,94728.63
2023-05-18T09:26:14.751Z,94717.13
2023-05-18T09:27:11.885Z,94724.63
2023-05-18T09:28:08.705Z,94581.97
2023-05-18T09:29:22.588Z,94679.25
2023-05-18T09:30:19.588Z,94704.38
2023-05-18T09:31:21.730Z,94717.59
2023-05-18T09:32:18.716Z,94690.16
2023-05-18T09:33:17.949Z,94602.81
2023-05-18T09:34:16.498Z,94702.28
2023-05-18T09:35:14.154Z,94631.53
2023-05-18T09:36:21.956Z,94743.72
2023-05-18T09:37:20.306Z,94711.28
2023-05-18T09:38:22.247Z,94598.03
2023-05-18T09:39:19.178Z,94722.88
2023-05-18T09:40:16.765Z,94588.09
2023-05-18T09:41:17.774Z,94730.16
2023-05-18T09:42:14.646Z,94709.69
2023-05-18T09:43:11.523Z,94624.69
2023-05-18T09:44:12.739Z,94672.97
2023-05-18T09:45:19.411Z,94596.78
2023-05-18T09:46:16.217Z,94731.22
2023-05-18T09:47:13.017Z,94720.75
2023-05-18T09:48:10.118Z,94670.56
2023-05-18T09:49:08.322Z,94707.47
2023-05-18T09:50:05.746Z,94725.63
2023-05-18T09:51:04.256Z,94609.34
2023-05-18T09:52:01.206Z,94735.63
2023-05-18T09:52:58.076Z,94715.16
2023-05-18T09:53:56.859Z,94747.22
2023-05-18T09:55:02.636Z,94717.19
2023-05-18T09:56:06.436Z,94734.41
2023-05-18T09:57:10.945Z,94744.13
2023-05-18T09:58:09.406Z,94634.16
2023-05-18T09:59:11.022Z,94722.31
2023-05-18T10:00:11.377Z,94757.47
2023-05-18T10:01:08.337Z,94743.16
2023-05-18T10:02:12.171Z,94751.94
2023-05-18T10:03:21.833Z,94714.47
2023-05-18T10:04:20.096Z,94743.66
2023-05-18T10:05:27.366Z,94756.03
2023-05-18T10:06:27.619Z,94741.09
2023-05-18T10:07:24.441Z,94758.28
2023-05-18T10:08:21.489Z,94669.66
2023-05-18T10:09:18.364Z,94593.16
2023-05-18T10:10:19.881Z,94636.72
2023-05-18T10:11:19.896Z,94779.16
2023-05-18T10:12:22.347Z,94554.69
2023-05-18T10:13:19.992Z,94670.47
2023-05-18T10:14:17.023Z,94757.19
2023-05-18T10:15:21.994Z,94653.66
2023-05-18T10:16:19.071Z,94784.31
2023-05-18T10:17:17.672Z,94771.00
2023-05-18T10:18:24.271Z,94738.44
2023-05-18T10:19:22.067Z,94767.84
2023-05-18T10:20:21.693Z,94792.44
2023-05-18T10:21:19.553Z,94750.13
2023-05-18T10:22:19.631Z,94723.06
2023-05-18T10:23:18.574Z,94803.75
2023-05-18T10:24:20.955Z,94629.81
2023-05-18T10:25:23.700Z,94737.66
2023-05-18T10:26:27.761Z,94602.91
2023-05-18T10:27:28.605Z,94798.09
2023-05-18T10:28:38.033Z,94762.78
2023-05-18T10:29:37.579Z,94685.28
2023-05-18T10:30:35.319Z,94718.88
2023-05-18T10:31:37.418Z,94770.09
2023-05-18T10:32:37.017Z,94800.22
2023-05-18T10:33:36.809Z,94578.84
2023-05-18T10:34:35.262Z,94801.34
2023-05-18T10:35:33.327Z,94689.50
2023-05-18T10:36:34.380Z,94730.41
2023-05-18T10:37:33.574Z,94798.25
2023-05-18T10:38:31.891Z,94666.66
2023-05-18T10:39:29.474Z,94702.59
2023-05-18T10:40:28.344Z,94794.72
2023-05-18T10:41:27.879Z,94759.00
2023-05-18T10:42:26.446Z,94764.69
2023-05-18T10:43:28.301Z,94809.28
2023-05-18T10:44:25.983Z,94800.09
2023-05-18T10:45:23.717Z,94794.63
2023-05-18T10:46:26.775Z,94801.97
2023-05-18T10:47:28.638Z,94553.81
2023-05-18T10:48:27.490Z,94740.16
2023-05-18T10:49:27.214Z,94663.56
2023-05-18T10:50:25.760Z,94747.00
2023-05-18T10:51:26.027Z,94703.75
2023-05-18T10:52:26.601Z,94690.25
2023-05-18T10:53:26.897Z,94705.91
2023-05-18T10:54:24.150Z,94805.63
2023-05-18T10:55:21.207Z,94789.94
2023-05-18T10:56:18.791Z,94722.97
2023-05-18T10:57:20.291Z,94808.16
2023-05-18T10:58:20.853Z,94783.25
2023-05-18T10:59:20.653Z,94744.34
2023-05-18T11:00:19.331Z,94681.16
2023-05-18T11:01:16.601Z,94706.53
2023-05-18T11:02:18.465Z,94784.63
2023-05-18T11:03:17.599Z,94674.59
2023-05-18T11:04:14.770Z,94662.56
2023-05-18T11:05:12.509Z,94677.88
2023-05-18T11:06:12.320Z,94666.00
2023-05-18T11:07:14.056Z,94735.44
2023-05-18T11:08:11.126Z,94707.00
2023-05-18T11:09:08.090Z,94669.63
2023-05-18T11:10:10.844Z,94800.41
2023-05-18T11:11:08.434Z,94808.81
2023-05-18T11:12:15.271Z,94787.63
2023-05-18T11:13:14.544Z,94749.97
2023-05-18T11:14:12.864Z,94718.28
2023-05-18T11:15:10.006Z,94822.94
2023-05-18T11:16:08.772Z,94788.22
2023-05-18T11:17:20.623Z,94815.28
2023-05-18T11:18:17.642Z,94689.47
2023-05-18T11:19:15.113Z,94820.38
2023-05-18T11:20:13.169Z,94802.66
2023-05-18T11:21:22.721Z,94780.19
2023-05-18T11:22:19.534Z,94819.81
2023-05-18T11:23:18.718Z,94804.34
2023-05-18T11:24:20.068Z,94814.41
2023-05-18T11:25:29.142Z,94821.78
2023-05-18T11:26:29.902Z,94787.59
2023-05-18T11:27:29.020Z,94777.13